sensor_id;sensor_type;location;lat;lon;timestamp;pressure;altitude;pressure_sealevel;temperature;humidity
43119;BME280;28729;49.838;8.650;2023-04-30T00:03:39;100220.91;;;11.44;100.00
43119;BME280;28729;49.838;8.650;2023-04-30T00:07:41;100217.56;;;11.41;100.00
43119;BME280;28729;49.838;8.650;2023-04-30T00:11:43;100221.16;;;11.42;100.00
43119;BME280;28729;49.838;8.650;2023-04-30T00:15:44;100221.31;;;11.35;100.00
43119;BME280;28729;49.838;8.650;2023-04-30T00:19:46;100227.09;;;11.34;100.00
43119;BME280;28729;49.838;8.650;2023-04-30T00:23:48;100230.66;;;11.34;100.00
43119;BME280;28729;49.838;8.650;2023-04-30T00:27:50;100229.25;;;11.32;100.00
43119;BME280;28729;49.838;8.650;2023-04-30T00:31:54;100226.47;;;11.32;100.00
43119;BME280;28729;49.838;8.650;2023-04-30T06:56:35;100280.63;;;12.19;100.00
43119;BME280;28729;49.838;8.650;2023-04-30T07:00:41;100282.06;;;12.38;100.00
43119;BME280;28729;49.838;8.650;2023-04-30T07:04:44;100274.28;;;12.52;98.69
43119;BME280;28729;49.838;8.650;2023-04-30T07:08:46;100276.34;;;12.78;98.80
43119;BME280;28729;49.838;8.650;2023-04-30T07:12:49;100279.44;;;12.99;96.71
43119;BME280;28729;49.838;8.650;2023-04-30T07:16:53;100281.56;;;13.14;94.01
43119;BME280;28729;49.838;8.650;2023-04-30T07:20:55;100281.06;;;13.34;89.46
43119;BME280;28729;49.838;8.650;2023-04-30T07:24:58;100272.31;;;13.42;88.67
43119;BME280;28729;49.838;8.650;2023-04-30T07:29:01;100280.72;;;13.52;88.91
43119;BME280;28729;49.838;8.650;2023-04-30T07:33:05;100277.63;;;13.71;86.88
43119;BME280;28729;49.838;8.650;2023-04-30T07:37:09;100280.03;;;13.89;86.14
43119;BME280;28729;49.838;8.650;2023-04-30T07:41:12;100279.44;;;14.09;86.20
43119;BME280;28729;49.838;8.650;2023-04-30T07:45:16;100285.13;;;14.24;82.74
43119;BME280;28729;49.838;8.650;2023-04-30T07:49:19;100280.28;;;14.42;80.89
43119;BME280;28729;49.838;8.650;2023-04-30T07:53:22;100273.22;;;14.56;76.95
43119;BME280;28729;49.838;8.650;2023-04-30T07:57:24;100271.91;;;14.64;78.99
43119;BME280;28729;49.838;8.650;2023-04-30T08:01:29;100274.59;;;14.91;77.63
43119;BME280;28729;49.838;8.650;2023-04-30T08:05:31;100278.34;;;15.12;75.35
43119;BME280;28729;49.838;8.650;2023-04-30T08:09:33;100284.53;;;15.24;72.98
43119;BME280;28729;49.838;8.650;2023-04-30T08:13:34;100281.25;;;15.32;69.55
43119;BME280;28729;49.838;8.650;2023-04-30T08:17:37;100287.44;;;15.55;70.22
43119;BME280;28729;49.838;8.650;2023-04-30T08:21:40;100280.09;;;15.91;68.22
43119;BME280;28729;49.838;8.650;2023-04-30T08:25:42;100279.84;;;16.08;64.55
43119;BME280;28729;49.838;8.650;2023-04-30T08:29:44;100274.84;;;16.00;63.98
43119;BME280;28729;49.838;8.650;2023-04-30T08:33:46;100272.94;;;16.31;63.55
43119;BME280;28729;49.838;8.650;2023-04-30T08:37:48;100271.28;;;16.60;62.80
43119;BME280;28729;49.838;8.650;2023-04-30T08:41:54;100259.03;;;16.97;61.54
43119;BME280;28729;49.838;8.650;2023-04-30T08:46:00;100262.28;;;17.30;57.04
43119;BME280;28729;49.838;8.650;2023-04-30T08:50:07;100260.56;;;17.49;56.26
43119;BME280;28729;49.838;8.650;2023-04-30T08:54:11;100268.78;;;17.80;56.87
43119;BME280;28729;49.838;8.650;2023-04-30T08:58:14;100253.44;;;17.72;54.17
43119;BME280;28729;49.838;8.650;2023-04-30T09:02:16;100253.56;;;17.52;53.75
43119;BME280;28729;49.838;8.650;2023-04-30T09:06:18;100246.75;;;17.08;52.66
43119;BME280;28729;49.838;8.650;2023-04-30T09:10:20;100254.28;;;16.98;52.75
43119;BME280;28729;49.838;8.650;2023-04-30T09:14:24;100245.38;;;17.01;50.89
43119;BME280;28729;49.838;8.650;2023-04-30T09:18:28;100255.06;;;17.29;49.96
43119;BME280;28729;49.838;8.650;2023-04-30T09:22:31;100254.34;;;17.63;49.36
43119;BME280;28729;49.838;8.650;2023-04-30T09:26:37;100251.25;;;17.80;47.84
43119;BME280;28729;49.838;8.650;2023-04-30T09:30:40;100245.63;;;17.85;46.92
43119;BME280;28729;49.838;8.650;2023-04-30T09:34:42;100235.97;;;18.11;43.60
43119;BME280;28729;49.838;8.650;2023-04-30T09:38:44;100231.66;;;18.29;43.16
43119;BME280;28729;49.838;8.650;2023-04-30T09:42:57;100236.34;;;18.68;45.18
43119;BME280;28729;49.838;8.650;2023-04-30T09:47:00;100229.94;;;18.97;45.23
43119;BME280;28729;49.838;8.650;2023-04-30T09:51:02;100228.06;;;19.16;42.62
43119;BME280;28729;49.838;8.650;2023-04-30T09:55:06;100220.03;;;19.09;41.49
43119;BME280;28729;49.838;8.650;2023-04-30T10:03:46;100219.34;;;19.42;41.58
43119;BME280;28729;49.838;8.650;2023-04-30T10:07:48;100208.56;;;19.78;41.51
43119;BME280;28729;49.838;8.650;2023-04-30T10:11:50;100204.84;;;19.64;38.53
43119;BME280;28729;49.838;8.650;2023-04-30T10:16:02;100199.19;;;19.69;39.66
43119;BME280;28729;49.838;8.650;2023-04-30T10:20:06;100206.31;;;19.99;38.22
43119;BME280;28729;49.838;8.650;2023-04-30T10:24:12;100194.06;;;20.14;39.34
43119;BME280;28729;49.838;8.650;2023-04-30T10:28:14;100194.19;;;20.03;36.79
43119;BME280;28729;49.838;8.650;2023-04-30T10:32:17;100184.66;;;20.04;37.61
43119;BME280;28729;49.838;8.650;2023-04-30T10:36:27;100176.50;;;19.89;36.99
43119;BME280;28729;49.838;8.650;2023-04-30T10:40:37;100173.94;;;20.12;37.98
43119;BME280;28729;49.838;8.650;2023-04-30T10:44:42;100172.31;;;20.24;35.29
43119;BME280;28729;49.838;8.650;2023-04-30T10:48:46;100160.38;;;20.52;36.19
43119;BME280;28729;49.838;8.650;2023-04-30T10:53:00;100164.38;;;20.64;37.28
43119;BME280;28729;49.838;8.650;2023-04-30T10:57:11;100163.66;;;20.73;36.53
43119;BME280;28729;49.838;8.650;2023-04-30T11:01:15;100161.59;;;20.78;36.42
43119;BME280;28729;49.838;8.650;2023-04-30T11:05:18;100137.63;;;20.72;34.39
43119;BME280;28729;49.838;8.650;2023-04-30T11:13:44;100148.00;;;20.71;36.43
43119;BME280;28729;49.838;8.650;2023-04-30T11:17:48;100140.72;;;20.84;35.47
43119;BME280;28729;49.838;8.650;2023-04-30T11:26:06;100134.19;;;21.03;36.50
43119;BME280;28729;49.838;8.650;2023-04-30T11:30:11;100136.16;;;21.44;35.37
43119;BME280;28729;49.838;8.650;2023-04-30T11:34:14;100125.50;;;21.68;34.04
43119;BME280;28729;49.838;8.650;2023-04-30T11:38:16;100119.16;;;21.99;33.99
43119;BME280;28729;49.838;8.650;2023-04-30T11:42:19;100119.19;;;22.52;33.70
43119;BME280;28729;49.838;8.650;2023-04-30T11:46:22;100115.38;;;23.37;32.81
43119;BME280;28729;49.838;8.650;2023-04-30T11:50:25;100119.59;;;23.92;32.19
43119;BME280;28729;49.838;8.650;2023-04-30T11:59:11;100102.47;;;24.87;29.97
43119;BME280;28729;49.838;8.650;2023-04-30T12:03:14;100106.00;;;25.43;29.33
43119;BME280;28729;49.838;8.650;2023-04-30T12:07:16;100083.81;;;25.75;28.12
43119;BME280;28729;49.838;8.650;2023-04-30T12:11:20;100086.25;;;25.43;28.33
43119;BME280;28729;49.838;8.650;2023-04-30T12:15:24;100084.19;;;25.32;28.78
43119;BME280;28729;49.838;8.650;2023-04-30T12:24:10;100087.47;;;24.01;30.39
43119;BME280;28729;49.838;8.650;2023-04-30T12:28:12;100081.69;;;25.30;28.96
43119;BME280;28729;49.838;8.650;2023-04-30T12:32:18;100077.72;;;25.73;28.73
43119;BME280;28729;49.838;8.650;2023-04-30T12:36:29;100072.97;;;26.65;28.15
43119;BME280;28729;49.838;8.650;2023-04-30T12:40:33;100072.13;;;27.50;25.71
43119;BME280;28729;49.838;8.650;2023-04-30T12:44:42;100070.09;;;27.50;24.75
43119;BME280;28729;49.838;8.650;2023-04-30T12:53:15;100051.31;;;28.58;24.98
43119;BME280;28729;49.838;8.650;2023-04-30T12:57:16;100051.38;;;27.86;24.75
43119;BME280;28729;49.838;8.650;2023-04-30T13:01:19;100060.97;;;27.17;26.29
43119;BME280;28729;49.838;8.650;2023-04-30T13:05:25;100033.50;;;27.17;25.20
43119;BME280;28729;49.838;8.650;2023-04-30T13:09:27;100031.16;;;27.60;25.62
43119;BME280;28729;49.838;8.650;2023-04-30T13:13:29;100033.94;;;27.72;24.95
43119;BME280;28729;49.838;8.650;2023-04-30T13:17:31;100040.47;;;27.08;25.33
43119;BME280;28729;49.838;8.650;2023-04-30T13:21:32;100011.22;;;28.12;24.63
43119;BME280;28729;49.838;8.650;2023-04-30T13:25:35;100015.63;;;29.40;23.54
43119;BME280;28729;49.838;8.650;2023-04-30T13:29:40;100000.69;;;30.25;22.69
43119;BME280;28729;49.838;8.650;2023-04-30T13:33:42;100014.81;;;30.40;22.44
43119;BME280;28729;49.838;8.650;2023-04-30T13:37:44;100003.03;;;30.65;22.66
43119;BME280;28729;49.838;8.650;2023-04-30T13:41:48;99999.75;;;30.63;21.63
43119;BME280;28729;49.838;8.650;2023-04-30T13:45:50;99987.84;;;31.07;21.63
43119;BME280;28729;49.838;8.650;2023-04-30T13:49:52;99985.31;;;31.28;20.97
43119;BME280;28729;49.838;8.650;2023-04-30T13:53:54;99983.19;;;31.22;21.81
43119;BME280;28729;49.838;8.650;2023-04-30T13:57:57;99982.56;;;31.66;20.44
43119;BME280;28729;49.838;8.650;2023-04-30T14:01:59;99973.41;;;32.20;20.30
43119;BME280;28729;49.838;8.650;2023-04-30T14:06:01;99969.94;;;32.00;20.18
43119;BME280;28729;49.838;8.650;2023-04-30T14:10:04;99981.94;;;31.19;21.87
43119;BME280;28729;49.838;8.650;2023-04-30T14:14:07;99982.38;;;29.99;22.37
43119;BME280;28729;49.838;8.650;2023-04-30T14:18:09;99974.22;;;28.37;23.67
43119;BME280;28729;49.838;8.650;2023-04-30T14:22:11;99973.53;;;26.99;23.96
43119;BME280;28729;49.838;8.650;2023-04-30T14:26:14;99973.03;;;26.11;25.22
43119;BME280;28729;49.838;8.650;2023-04-30T14:30:15;99972.88;;;25.29;25.82
43119;BME280;28729;49.838;8.650;2023-04-30T14:34:18;99966.09;;;25.00;26.46
43119;BME280;28729;49.838;8.650;2023-04-30T14:38:20;99961.81;;;24.94;26.41
43119;BME280;28729;49.838;8.650;2023-04-30T14:42:22;99956.53;;;24.72;26.89
43119;BME280;28729;49.838;8.650;2023-04-30T14:46:24;99960.28;;;24.76;27.53
43119;BME280;28729;49.838;8.650;2023-04-30T14:50:25;99962.69;;;24.86;27.01
43119;BME280;28729;49.838;8.650;2023-04-30T14:54:29;99952.66;;;24.47;27.25
43119;BME280;28729;49.838;8.650;2023-04-30T14:58:31;99945.38;;;24.07;27.86
43119;BME280;28729;49.838;8.650;2023-04-30T15:02:33;99935.53;;;23.66;28.38
43119;BME280;28729;49.838;8.650;2023-04-30T15:06:36;99941.03;;;23.46;28.67
43119;BME280;28729;49.838;8.650;2023-04-30T15:10:38;99932.28;;;23.30;29.29
43119;BME280;28729;49.838;8.650;2023-04-30T15:14:40;99933.13;;;23.13;29.61
43119;BME280;28729;49.838;8.650;2023-04-30T15:18:42;99929.78;;;22.85;28.83
43119;BME280;28729;49.838;8.650;2023-04-30T15:22:44;99917.66;;;22.41;29.83
43119;BME280;28729;49.838;8.650;2023-04-30T15:26:46;99917.28;;;22.34;30.20
43119;BME280;28729;49.838;8.650;2023-04-30T15:30:50;99928.44;;;22.16;30.46
43119;BME280;28729;49.838;8.650;2023-04-30T15:34:52;99924.00;;;21.84;30.21
43119;BME280;28729;49.838;8.650;2023-04-30T15:38:55;99928.19;;;21.95;30.45
43119;BME280;28729;49.838;8.650;2023-04-30T15:42:57;99917.88;;;22.13;30.02
43119;BME280;28729;49.838;8.650;2023-04-30T15:46:59;99923.41;;;21.96;30.60
43119;BME280;28729;49.838;8.650;2023-04-30T15:51:02;99910.44;;;21.77;30.79
43119;BME280;28729;49.838;8.650;2023-04-30T15:55:04;99908.56;;;21.64;31.64
43119;BME280;28729;49.838;8.650;2023-04-30T15:59:07;99904.09;;;21.63;31.31
43119;BME280;28729;49.838;8.650;2023-04-30T16:03:09;99909.16;;;21.52;31.92
43119;BME280;28729;49.838;8.650;2023-04-30T16:07:11;99908.09;;;21.39;31.39
43119;BME280;28729;49.838;8.650;2023-04-30T16:11:13;99898.00;;;21.38;32.26
43119;BME280;28729;49.838;8.650;2023-04-30T16:15:15;99900.31;;;21.68;32.16
43119;BME280;28729;49.838;8.650;2023-04-30T16:19:17;99897.84;;;21.66;31.83
43119;BME280;28729;49.838;8.650;2023-04-30T16:23:18;99893.34;;;21.34;32.17
43119;BME280;28729;49.838;8.650;2023-04-30T16:27:20;99891.50;;;21.07;32.60
43119;BME280;28729;49.838;8.650;2023-04-30T16:31:22;99879.81;;;20.91;31.95
43119;BME280;28729;49.838;8.650;2023-04-30T16:35:24;99889.84;;;20.69;32.26
43119;BME280;28729;49.838;8.650;2023-04-30T16:39:26;99878.91;;;20.59;32.71
43119;BME280;28729;49.838;8.650;2023-04-30T16:43:28;99873.50;;;20.49;32.93
43119;BME280;28729;49.838;8.650;2023-04-30T16:47:30;99871.66;;;20.44;33.44
43119;BME280;28729;49.838;8.650;2023-04-30T16:51:32;99860.91;;;20.38;33.78
43119;BME280;28729;49.838;8.650;2023-04-30T16:55:34;99859.53;;;20.35;34.55
43119;BME280;28729;49.838;8.650;2023-04-30T16:59:36;99866.78;;;20.50;34.24
43119;BME280;28729;49.838;8.650;2023-04-30T17:03:38;99866.03;;;20.58;34.23
43119;BME280;28729;49.838;8.650;2023-04-30T17:07:43;99849.22;;;20.58;33.70
43119;BME280;28729;49.838;8.650;2023-04-30T17:11:45;99852.78;;;20.50;34.90
43119;BME280;28729;49.838;8.650;2023-04-30T17:15:47;99846.91;;;20.24;34.56
43119;BME280;28729;49.838;8.650;2023-04-30T17:19:49;99853.13;;;20.07;34.60
43119;BME280;28729;49.838;8.650;2023-04-30T17:23:51;99854.09;;;19.89;34.72
43119;BME280;28729;49.838;8.650;2023-04-30T17:27:53;99847.31;;;19.62;35.02
43119;BME280;28729;49.838;8.650;2023-04-30T17:31:55;99864.47;;;19.42;35.57
43119;BME280;28729;49.838;8.650;2023-04-30T17:36:00;99850.16;;;19.29;35.78
43119;BME280;28729;49.838;8.650;2023-04-30T17:40:02;99853.97;;;19.20;36.50
43119;BME280;28729;49.838;8.650;2023-04-30T17:44:06;99854.84;;;19.01;38.97
43119;BME280;28729;49.838;8.650;2023-04-30T17:48:07;99862.81;;;18.75;39.03
43119;BME280;28729;49.838;8.650;2023-04-30T17:52:10;99863.47;;;18.48;40.72
43119;BME280;28729;49.838;8.650;2023-04-30T17:56:12;99861.00;;;18.22;42.22
43119;BME280;28729;49.838;8.650;2023-04-30T18:00:14;99858.31;;;17.93;44.80
43119;BME280;28729;49.838;8.650;2023-04-30T18:04:17;99862.81;;;17.65;44.79
43119;BME280;28729;49.838;8.650;2023-04-30T18:08:21;99859.22;;;17.36;47.14
43119;BME280;28729;49.838;8.650;2023-04-30T18:12:22;99859.44;;;17.10;47.84
43119;BME280;28729;49.838;8.650;2023-04-30T18:16:25;99856.91;;;16.79;48.63
43119;BME280;28729;49.838;8.650;2023-04-30T18:20:27;99853.72;;;16.57;49.28
43119;BME280;28729;49.838;8.650;2023-04-30T18:24:29;99856.94;;;16.30;50.69
43119;BME280;28729;49.838;8.650;2023-04-30T18:28:32;99861.50;;;16.05;51.74
43119;BME280;28729;49.838;8.650;2023-04-30T18:32:37;99860.22;;;15.82;53.77
43119;BME280;28729;49.838;8.650;2023-04-30T18:36:39;99858.31;;;15.62;54.91
43119;BME280;28729;49.838;8.650;2023-04-30T18:40:43;99864.47;;;15.44;56.43
43119;BME280;28729;49.838;8.650;2023-04-30T18:44:47;99860.34;;;15.26;57.08
43119;BME280;28729;49.838;8.650;2023-04-30T18:48:50;99873.69;;;15.09;57.85
43119;BME280;28729;49.838;8.650;2023-04-30T18:52:52;99875.06;;;14.91;59.04
43119;BME280;28729;49.838;8.650;2023-04-30T18:56:54;99867.81;;;14.74;59.52
43119;BME280;28729;49.838;8.650;2023-04-30T19:00:56;99876.41;;;14.63;60.31
43119;BME280;28729;49.838;8.650;2023-04-30T19:04:59;99879.13;;;14.47;60.27
43119;BME280;28729;49.838;8.650;2023-04-30T19:09:01;99886.88;;;14.35;60.68
43119;BME280;28729;49.838;8.650;2023-04-30T19:13:03;99878.78;;;14.23;61.88
43119;BME280;28729;49.838;8.650;2023-04-30T19:17:04;99885.69;;;14.10;63.39
43119;BME280;28729;49.838;8.650;2023-04-30T19:21:08;99879.53;;;13.98;63.75
43119;BME280;28729;49.838;8.650;2023-04-30T19:25:10;99877.81;;;13.87;63.79
43119;BME280;28729;49.838;8.650;2023-04-30T19:29:11;99884.44;;;13.81;63.77
43119;BME280;28729;49.838;8.650;2023-04-30T19:33:14;99891.31;;;13.73;64.45
43119;BME280;28729;49.838;8.650;2023-04-30T19:37:15;99885.44;;;13.59;64.90
43119;BME280;28729;49.838;8.650;2023-04-30T19:41:18;99888.94;;;13.44;66.82
43119;BME280;28729;49.838;8.650;2023-04-30T19:45:21;99895.53;;;13.38;66.84
43119;BME280;28729;49.838;8.650;2023-04-30T19:49:23;99896.34;;;13.34;68.06
43119;BME280;28729;49.838;8.650;2023-04-30T19:53:26;99888.81;;;13.29;68.46
43119;BME280;28729;49.838;8.650;2023-04-30T19:57:33;99900.38;;;13.21;69.05
43119;BME280;28729;49.838;8.650;2023-04-30T20:01:36;99896.72;;;13.15;69.98
43119;BME280;28729;49.838;8.650;2023-04-30T20:05:39;99895.03;;;13.09;69.91
43119;BME280;28729;49.838;8.650;2023-04-30T20:09:41;99901.34;;;13.05;69.68
43119;BME280;28729;49.838;8.650;2023-04-30T20:13:43;99894.69;;;13.00;70.67
43119;BME280;28729;49.838;8.650;2023-04-30T20:17:45;99895.72;;;12.94;71.87
43119;BME280;28729;49.838;8.650;2023-04-30T20:21:47;99898.16;;;12.91;73.18
43119;BME280;28729;49.838;8.650;2023-04-30T20:25:52;99907.00;;;12.88;74.26
43119;BME280;28729;49.838;8.650;2023-04-30T20:29:55;99896.72;;;12.83;75.62
43119;BME280;28729;49.838;8.650;2023-04-30T20:33:57;99896.16;;;12.81;76.26
43119;BME280;28729;49.838;8.650;2023-04-30T20:38:01;99885.91;;;12.76;75.97
43119;BME280;28729;49.838;8.650;2023-04-30T20:42:03;99888.06;;;12.74;74.66
43119;BME280;28729;49.838;8.650;2023-04-30T20:46:05;99888.59;;;12.71;74.75
43119;BME280;28729;49.838;8.650;2023-04-30T20:50:07;99889.44;;;12.72;75.25
43119;BME280;28729;49.838;8.650;2023-04-30T20:54:09;99900.78;;;12.70;74.87
43119;BME280;28729;49.838;8.650;2023-04-30T20:58:11;99890.25;;;12.67;75.11
43119;BME280;28729;49.838;8.650;2023-04-30T21:02:13;99883.84;;;12.67;75.53
43119;BME280;28729;49.838;8.650;2023-04-30T21:06:17;99891.91;;;12.68;75.77
43119;BME280;28729;49.838;8.650;2023-04-30T21:10:19;99894.91;;;12.67;76.56
43119;BME280;28729;49.838;8.650;2023-04-30T21:14:20;99890.75;;;12.64;77.53
43119;BME280;28729;49.838;8.650;2023-04-30T21:18:23;99892.41;;;12.65;77.89
43119;BME280;28729;49.838;8.650;2023-04-30T21:22:27;99889.72;;;12.70;78.51
43119;BME280;28729;49.838;8.650;2023-04-30T21:26:29;99887.25;;;12.74;78.57
43119;BME280;28729;49.838;8.650;2023-04-30T21:30:31;99881.78;;;12.79;78.94
43119;BME280;28729;49.838;8.650;2023-04-30T21:34:33;99881.03;;;12.89;79.06
43119;BME280;28729;49.838;8.650;2023-04-30T21:38:35;99878.31;;;12.94;79.43
43119;BME280;28729;49.838;8.650;2023-04-30T21:42:37;99882.25;;;13.03;79.21
43119;BME280;28729;49.838;8.650;2023-04-30T21:46:40;99878.97;;;13.06;78.22
43119;BME280;28729;49.838;8.650;2023-04-30T21:50:42;99877.06;;;13.12;79.10
43119;BME280;28729;49.838;8.650;2023-04-30T21:54:47;99876.50;;;13.10;79.79
43119;BME280;28729;49.838;8.650;2023-04-30T21:58:49;99880.31;;;13.04;80.34
43119;BME280;28729;49.838;8.650;2023-04-30T22:02:51;99875.53;;;12.94;79.21
43119;BME280;28729;49.838;8.650;2023-04-30T22:06:53;99874.66;;;12.88;79.16
43119;BME280;28729;49.838;8.650;2023-04-30T22:10:56;99872.69;;;12.84;79.18
43119;BME280;28729;49.838;8.650;2023-04-30T22:15:01;99869.31;;;12.82;79.07
43119;BME280;28729;49.838;8.650;2023-04-30T22:19:03;99865.72;;;12.76;78.30
43119;BME280;28729;49.838;8.650;2023-04-30T22:23:06;99865.13;;;12.74;77.63
43119;BME280;28729;49.838;8.650;2023-04-30T22:27:07;99861.00;;;12.76;78.97
43119;BME280;28729;49.838;8.650;2023-04-30T22:31:09;99857.31;;;12.66;79.74
43119;BME280;28729;49.838;8.650;2023-04-30T22:35:14;99865.03;;;12.64;79.77
43119;BME280;28729;49.838;8.650;2023-04-30T22:39:17;99854.50;;;12.61;78.33
43119;BME280;28729;49.838;8.650;2023-04-30T22:43:19;99851.72;;;12.61;76.03
43119;BME280;28729;49.838;8.650;2023-04-30T22:47:23;99850.66;;;12.67;75.51
43119;BME280;28729;49.838;8.650;2023-04-30T22:51:27;99852.66;;;12.71;73.93
43119;BME280;28729;49.838;8.650;2023-04-30T22:55:30;99841.59;;;12.71;73.91
43119;BME280;28729;49.838;8.650;2023-04-30T22:59:33;99847.59;;;12.63;74.96
43119;BME280;28729;49.838;8.650;2023-04-30T23:03:35;99848.06;;;12.55;75.70
43119;BME280;28729;49.838;8.650;2023-04-30T23:07:39;99845.84;;;12.52;74.29
43119;BME280;28729;49.838;8.650;2023-04-30T23:11:41;99846.41;;;12.54;74.23
43119;BME280;28729;49.838;8.650;2023-04-30T23:15:47;99842.00;;;12.53;73.81
43119;BME280;28729;49.838;8.650;2023-04-30T23:19:49;99838.03;;;12.44;74.46
43119;BME280;28729;49.838;8.650;2023-04-30T23:23:51;99841.50;;;12.34;74.11
43119;BME280;28729;49.838;8.650;2023-04-30T23:27:52;99838.50;;;12.36;73.20
43119;BME280;28729;49.838;8.650;2023-04-30T23:31:54;99831.50;;;12.28;73.29
43119;BME280;28729;49.838;8.650;2023-04-30T23:35:56;99833.38;;;12.22;73.88
43119;BME280;28729;49.838;8.650;2023-04-30T23:39:57;99827.22;;;12.15;73.97
43119;BME280;28729;49.838;8.650;2023-04-30T23:44:01;99823.88;;;12.13;73.83
43119;BME280;28729;49.838;8.650;2023-04-30T23:48:03;99816.13;;;12.10;74.09
43119;BME280;28729;49.838;8.650;2023-04-30T23:52:05;99813.38;;;12.10;73.80
43119;BME280;28729;49.838;8.650;2023-04-30T23:56:07;99810.34;;;12.12;72.53
